Time;durP1;ratioP1;P1;durP2;ratioP2;P2;SDS_P1;SDS_P2;PMS_P1;PMS_P2;Temp;Humidity;BMP_temperature;BMP_pressure;BME280_temperature;BME280_humidity;BME280_pressure;Samples;Min_cycle;Max_cycle;Signal;HPM_P1;HPM_P2
2022/11/07 00:02:01;;;;;;;36.38;16.45;;;6.70;99.90;;;;;;5072802;28;20021;-79
2022/11/07 00:04:28;;;;;;;29.90;15.40;;;6.70;99.90;;;;;;5072850;28;20440;-78
2022/11/07 00:06:54;;;;;;;31.02;14.35;;;6.60;99.90;;;;;;5072558;28;20114;-77
2022/11/07 00:09:20;;;;;;;31.63;15.77;;;6.60;99.90;;;;;;5072666;28;20067;-78
2022/11/07 00:11:45;;;;;;;33.05;16.35;;;6.60;99.90;;;;;;5072662;28;20119;-78
2022/11/07 00:14:13;;;;;;;32.65;15.20;;;6.60;99.90;;;;;;5072411;28;20040;-79
2022/11/07 00:16:39;;;;;;;32.20;15.80;;;6.60;99.90;;;;;;5073793;28;20024;-78
2022/11/07 00:19:04;;;;;;;32.83;17.00;;;6.50;99.90;;;;;;5072517;28;20035;-79
2022/11/07 00:21:30;;;;;;;26.60;14.00;;;6.50;99.90;;;;;;5072468;28;20029;-79
2022/11/07 00:23:55;;;;;;;28.83;13.18;;;6.50;99.90;;;;;;5083552;28;20462;-78
2022/11/07 00:26:21;;;;;;;27.23;14.18;;;6.40;99.90;;;;;;5093967;28;20066;-77
2022/11/07 00:28:47;;;;;;;30.30;15.27;;;6.40;99.90;;;;;;5093951;28;20095;-79
2022/11/07 00:31:13;;;;;;;31.25;15.02;;;6.40;99.90;;;;;;5109490;28;20485;-78
2022/11/07 00:33:40;;;;;;;28.63;14.30;;;6.30;99.90;;;;;;5109512;28;20028;-78
2022/11/07 00:36:07;;;;;;;30.55;14.23;;;6.30;99.90;;;;;;5109357;28;20470;-77
2022/11/07 00:38:33;;;;;;;29.38;15.52;;;6.20;99.90;;;;;;5086798;28;20462;-78
2022/11/07 00:41:04;;;;;;;31.75;15.95;;;6.20;99.90;;;;;;5071754;28;20045;-78
2022/11/07 00:43:30;;;;;;;31.92;15.15;;;6.20;99.90;;;;;;5072206;28;20032;-78
2022/11/07 00:45:56;;;;;;;31.90;14.15;;;6.30;99.90;;;;;;5072160;28;20367;-78
2022/11/07 00:48:22;;;;;;;29.67;14.18;;;6.30;99.90;;;;;;5073386;28;20538;-79
2022/11/07 00:50:48;;;;;;;31.30;16.35;;;6.30;99.90;;;;;;5071947;28;20111;-78
2022/11/07 00:53:13;;;;;;;30.75;14.43;;;6.30;99.90;;;;;;5071750;28;20036;-78
2022/11/07 00:55:39;;;;;;;30.20;14.88;;;6.30;99.90;;;;;;5073313;28;20381;-79
2022/11/07 00:58:04;;;;;;;33.47;15.57;;;6.30;99.90;;;;;;5073383;28;20021;-78
2022/11/07 01:00:30;;;;;;;33.25;15.60;;;6.30;99.90;;;;;;5071807;28;20029;-79
2022/11/07 01:05:40;;;;;;;29.92;14.40;;;6.40;99.90;;;;;;5073053;28;20064;-77
2022/11/07 01:08:06;;;;;;;31.75;15.57;;;6.40;99.90;;;;;;5071883;28;20024;-77
2022/11/07 01:10:32;;;;;;;34.45;17.17;;;6.40;99.90;;;;;;5071880;28;20055;-78
2022/11/07 01:12:58;;;;;;;33.65;15.90;;;6.40;99.90;;;;;;5073042;28;20033;-79
2022/11/07 01:15:23;;;;;;;37.72;18.30;;;6.40;99.90;;;;;;5071568;28;20028;-78
2022/11/07 01:17:49;;;;;;;30.73;15.25;;;6.50;99.90;;;;;;5088423;28;20106;-79
2022/11/07 01:20:15;;;;;;;35.33;15.77;;;6.50;99.90;;;;;;5071757;28;20024;-77
2022/11/07 01:22:41;;;;;;;30.85;14.27;;;6.50;99.90;;;;;;5088402;28;20142;-78
2022/11/07 01:25:07;;;;;;;35.28;15.65;;;6.50;99.90;;;;;;5072975;28;20044;-77
2022/11/07 01:27:32;;;;;;;32.83;15.48;;;6.40;99.90;;;;;;5072820;28;20066;-78
2022/11/07 01:29:58;;;;;;;29.63;15.50;;;6.50;99.90;;;;;;5088441;28;20024;-78
2022/11/07 01:32:24;;;;;;;33.17;14.65;;;6.50;99.90;;;;;;5072874;28;20024;-78
2022/11/07 01:34:50;;;;;;;37.72;17.65;;;6.50;99.90;;;;;;5088351;28;20037;-78
2022/11/07 01:37:15;;;;;;;31.30;14.63;;;6.50;99.90;;;;;;5072717;28;20029;-78
2022/11/07 01:39:41;;;;;;;36.08;17.38;;;6.50;99.90;;;;;;5072848;28;20031;-78
2022/11/07 01:42:09;;;;;;;36.70;15.68;;;6.50;99.90;;;;;;5072875;28;20084;-78
2022/11/07 01:44:41;;;;;;;32.63;16.58;;;6.50;99.90;;;;;;5072757;28;20021;-79
2022/11/07 01:47:07;;;;;;;34.38;15.38;;;6.50;99.90;;;;;;5071407;28;20052;-77
2022/11/07 01:49:39;;;;;;;31.92;15.13;;;6.50;99.90;;;;;;5072751;28;20025;-77
2022/11/07 01:52:21;;;;;;;34.10;16.70;;;6.60;99.90;;;;;;5072338;28;20067;-78
2022/11/07 01:55:00;;;;;;;34.83;16.27;;;6.60;99.90;;;;;;5076703;28;20032;-78
2022/11/07 01:57:39;;;;;;;30.13;16.30;;;6.60;99.90;;;;;;5076455;28;20024;-78
2022/11/07 02:00:10;;;;;;;28.55;14.30;;;6.60;99.90;;;;;;5092227;28;20104;-77
2022/11/07 02:02:37;;;;;;;29.17;13.85;;;6.60;99.90;;;;;;5092084;28;20025;-77
2022/11/07 02:05:05;;;;;;;31.50;14.35;;;6.60;99.90;;;;;;5075138;28;20028;-78
2022/11/07 02:07:31;;;;;;;32.72;16.20;;;6.60;99.90;;;;;;5076216;28;20017;-78
2022/11/07 02:09:57;;;;;;;30.38;14.80;;;6.60;99.90;;;;;;5076329;28;20025;-77
2022/11/07 02:12:25;;;;;;;28.25;15.30;;;6.60;99.90;;;;;;5076106;28;20032;-77
2022/11/07 02:14:50;;;;;;;29.98;15.55;;;6.60;99.90;;;;;;5076078;28;20060;-78
2022/11/07 02:17:17;;;;;;;28.15;13.82;;;6.60;99.90;;;;;;5076249;28;20059;-78
2022/11/07 02:19:49;;;;;;;27.10;13.57;;;6.60;99.90;;;;;;5076119;28;20021;-77
2022/11/07 02:22:54;;;;;;;32.17;14.30;;;6.60;99.90;;;;;;5091690;28;20068;-78
2022/11/07 02:25:20;;;;;;;30.52;13.55;;;6.60;99.90;;;;;;5055000;28;20502;-78
2022/11/07 02:27:48;;;;;;;30.35;14.05;;;6.60;99.90;;;;;;5071312;28;20112;-78
2022/11/07 02:30:26;;;;;;;31.95;14.55;;;6.60;99.90;;;;;;5054708;28;20431;-78
2022/11/07 02:32:52;;;;;;;27.08;13.55;;;6.60;99.90;;;;;;5071108;28;20032;-77
2022/11/07 02:35:36;;;;;;;32.42;15.63;;;6.70;99.90;;;;;;5055898;28;20025;-78
2022/11/07 02:38:06;;;;;;;28.38;14.10;;;6.70;99.90;;;;;;5059181;28;20034;-77
2022/11/07 02:40:32;;;;;;;24.10;13.02;;;6.70;99.90;;;;;;5075556;28;20036;-78
2022/11/07 02:42:59;;;;;;;27.08;14.98;;;6.70;99.90;;;;;;5091263;28;20017;-78
2022/11/07 02:45:33;;;;;;;28.70;13.50;;;6.70;99.90;;;;;;5091174;28;20063;-77
2022/11/07 02:47:59;;;;;;;31.52;14.30;;;6.70;99.90;;;;;;5075669;28;20020;-78
2022/11/07 02:50:25;;;;;;;29.88;13.90;;;6.70;99.90;;;;;;5075519;28;20052;-78
2022/11/07 02:52:50;;;;;;;27.98;14.30;;;6.70;99.90;;;;;;5075367;28;20094;-78
2022/11/07 02:55:16;;;;;;;31.42;16.00;;;6.70;99.90;;;;;;5074264;28;20027;-77
2022/11/07 02:57:42;;;;;;;31.95;14.07;;;6.70;99.90;;;;;;5075422;28;20020;-77
2022/11/07 03:00:10;;;;;;;24.58;14.73;;;6.70;99.90;;;;;;5075477;28;20025;-77
2022/11/07 03:02:36;;;;;;;29.85;15.07;;;6.70;99.90;;;;;;5075099;28;20082;-77
2022/11/07 03:05:02;;;;;;;31.15;14.88;;;6.70;99.90;;;;;;5075297;28;20032;-77
2022/11/07 03:07:28;;;;;;;27.48;13.32;;;6.70;99.90;;;;;;5075098;28;20106;-78
2022/11/07 03:09:53;;;;;;;27.67;14.07;;;6.70;99.90;;;;;;5075233;28;20180;-78
2022/11/07 03:12:19;;;;;;;29.13;14.45;;;6.80;99.90;;;;;;5090781;28;20020;-77
2022/11/07 03:14:44;;;;;;;30.25;14.90;;;6.80;99.90;;;;;;5074849;28;20036;-78
2022/11/07 03:17:10;;;;;;;31.45;14.30;;;6.80;99.90;;;;;;5073819;28;20107;-79
2022/11/07 03:19:36;;;;;;;27.10;13.90;;;6.80;99.90;;;;;;5074978;28;20417;-78
2022/11/07 03:22:02;;;;;;;24.90;14.05;;;6.80;99.90;;;;;;5090634;28;20371;-78
2022/11/07 03:24:28;;;;;;;29.83;13.27;;;6.80;99.90;;;;;;5106993;28;20103;-78
2022/11/07 03:26:53;;;;;;;28.08;14.45;;;6.80;99.90;;;;;;5093892;28;20052;-78
2022/11/07 03:29:19;;;;;;;29.77;14.35;;;6.80;99.90;;;;;;5094941;28;20392;-78
2022/11/07 03:31:44;;;;;;;28.92;14.65;;;6.90;99.90;;;;;;5095097;28;20055;-77
2022/11/07 03:34:10;;;;;;;26.50;13.93;;;6.90;99.90;;;;;;5093357;28;20044;-77
2022/11/07 03:36:35;;;;;;;24.75;12.32;;;6.90;99.90;;;;;;5110599;28;20023;-78
2022/11/07 03:39:01;;;;;;;28.25;14.60;;;6.90;99.90;;;;;;5098316;28;20021;-77
2022/11/07 03:41:27;;;;;;;26.83;13.43;;;6.90;99.90;;;;;;5074614;28;20068;-77
2022/11/07 03:43:53;;;;;;;25.30;13.35;;;6.90;99.90;;;;;;5073201;28;20020;-77
2022/11/07 03:46:19;;;;;;;27.05;13.30;;;6.90;99.90;;;;;;5073314;28;20074;-77
2022/11/07 03:48:44;;;;;;;26.55;14.77;;;6.90;99.90;;;;;;5073068;28;20432;-78
2022/11/07 03:51:11;;;;;;;26.48;13.82;;;6.90;99.90;;;;;;5074412;28;20029;-77
2022/11/07 03:53:37;;;;;;;28.52;13.57;;;7.00;99.90;;;;;;5072941;28;20413;-78
2022/11/07 03:56:10;;;;;;;25.10;13.15;;;7.00;99.90;;;;;;5073006;28;20016;-77
2022/11/07 03:58:36;;;;;;;25.67;13.57;;;7.00;99.90;;;;;;5074172;28;20032;-78
2022/11/07 04:01:01;;;;;;;24.35;13.40;;;7.00;99.90;;;;;;5072931;28;20059;-77
2022/11/07 04:03:27;;;;;;;27.40;12.90;;;7.10;99.90;;;;;;5072820;28;20051;-78
2022/11/07 04:05:53;;;;;;;29.63;14.48;;;7.10;99.90;;;;;;5074087;28;20069;-77
2022/11/07 04:08:19;;;;;;;34.42;15.23;;;7.10;99.90;;;;;;5073991;28;20497;-77
2022/11/07 04:10:44;;;;;;;27.55;14.13;;;7.10;99.90;;;;;;5074129;28;20050;-78
2022/11/07 04:18:40;;;;;;;26.27;13.75;;;7.00;99.90;;;;;;5073334;28;20174;-78
2022/11/07 04:21:06;;;;;;;28.90;14.43;;;7.10;99.90;;;;;;5072572;28;20066;-77
2022/11/07 04:23:31;;;;;;;28.08;14.50;;;7.10;99.90;;;;;;5082642;28;20024;-78
2022/11/07 04:28:41;;;;;;;27.75;14.30;;;7.10;99.90;;;;;;5093979;28;20114;-77
2022/11/07 04:31:07;;;;;;;27.77;13.30;;;7.10;99.90;;;;;;5093910;28;20095;-77
2022/11/07 04:33:32;;;;;;;29.13;13.75;;;7.10;99.90;;;;;;5093937;28;20032;-78
2022/11/07 04:35:58;;;;;;;26.17;13.90;;;7.10;99.90;;;;;;5109374;28;20055;-78
2022/11/07 04:38:24;;;;;;;25.77;13.43;;;7.10;99.90;;;;;;5086648;28;20017;-77
2022/11/07 04:40:56;;;;;;;28.55;13.55;;;7.10;99.90;;;;;;5073258;28;20127;-78
2022/11/07 04:43:25;;;;;;;;;;;7.10;99.90;;;;;;5073906;28;20593;-78
2022/11/07 04:45:52;;;;;;;26.08;13.38;;;7.10;99.90;;;;;;5073299;28;19905;-78
2022/11/07 04:48:17;;;;;;;26.10;13.50;;;7.10;99.90;;;;;;5073436;28;20020;-78
2022/11/07 04:50:44;;;;;;;27.40;14.23;;;7.20;99.90;;;;;;5071973;28;20052;-77
2022/11/07 04:53:14;;;;;;;24.73;14.25;;;7.20;99.90;;;;;;5073333;28;20040;-77
2022/11/07 04:55:40;;;;;;;25.98;13.88;;;7.30;99.90;;;;;;5071940;28;20108;-77
2022/11/07 04:58:06;;;;;;;24.27;12.90;;;7.30;99.90;;;;;;5073230;28;20052;-77
2022/11/07 05:00:32;;;;;;;27.35;14.63;;;7.30;99.90;;;;;;5073158;28;20067;-78
2022/11/07 05:02:58;;;;;;;26.23;14.23;;;7.30;99.90;;;;;;5073246;28;20030;-77
2022/11/07 05:05:24;;;;;;;23.75;14.32;;;7.30;99.90;;;;;;5073186;28;20026;-77
2022/11/07 05:07:49;;;;;;;28.38;13.18;;;7.30;99.90;;;;;;5073138;28;20021;-77
2022/11/07 05:10:25;;;;;;;27.10;12.68;;;7.40;99.90;;;;;;5071691;28;20031;-77
2022/11/07 05:12:51;;;;;;;26.70;13.40;;;7.40;99.90;;;;;;5072975;28;20052;-78
2022/11/07 05:15:17;;;;;;;22.08;12.98;;;7.40;99.90;;;;;;5072991;28;20052;-78
2022/11/07 05:17:43;;;;;;;23.88;13.63;;;7.40;99.90;;;;;;5073127;28;20044;-78
2022/11/07 05:20:46;;;;;;;24.77;14.25;;;7.40;99.90;;;;;;5071708;28;20029;-77
2022/11/07 05:23:13;;;;;;;;;;;7.40;99.90;;;;;;5066082;28;20039;-78
2022/11/07 05:25:49;;;;;;;25.70;14.32;;;7.40;99.90;;;;;;5091827;28;20045;-77
2022/11/07 05:28:20;;;;;;;24.83;13.40;;;7.40;99.90;;;;;;5112011;28;20024;-77
2022/11/07 05:30:46;;;;;;;23.27;12.13;;;7.40;99.90;;;;;;5097427;28;20099;-78
2022/11/07 05:33:13;;;;;;;23.00;11.45;;;7.50;99.90;;;;;;5097326;28;20486;-78
2022/11/07 05:35:39;;;;;;;24.00;13.05;;;7.40;99.90;;;;;;5113135;28;20042;-77
2022/11/07 05:38:05;;;;;;;22.13;12.85;;;7.40;99.90;;;;;;5092307;28;20021;-77
2022/11/07 05:40:31;;;;;;;24.60;14.70;;;7.50;99.90;;;;;;5076595;28;20093;-77
2022/11/07 05:43:01;;;;;;;23.17;14.20;;;7.50;99.90;;;;;;5077019;28;20044;-78
2022/11/07 05:45:30;;;;;;;26.58;14.35;;;7.50;99.90;;;;;;5075508;28;20024;-78
2022/11/07 05:48:00;;;;;;;25.05;13.40;;;7.50;99.90;;;;;;5075491;28;20393;-77
2022/11/07 05:50:27;;;;;;;25.13;13.45;;;7.50;99.90;;;;;;5076627;28;20094;-78
2022/11/07 05:52:53;;;;;;;24.95;13.70;;;7.50;99.90;;;;;;5076598;28;20033;-78
2022/11/07 05:55:19;;;;;;;24.38;13.32;;;7.50;99.90;;;;;;5076564;28;20032;-77
2022/11/07 05:57:44;;;;;;;24.65;12.88;;;7.60;99.90;;;;;;5076570;28;20052;-77
2022/11/07 06:00:11;;;;;;;26.92;14.95;;;7.60;99.90;;;;;;5076467;28;20516;-77
2022/11/07 06:02:36;;;;;;;32.55;16.60;;;7.60;99.90;;;;;;5076406;28;20490;-78
2022/11/07 06:05:02;;;;;;;26.02;14.45;;;7.50;99.90;;;;;;5076249;28;20033;-77
2022/11/07 06:07:28;;;;;;;24.95;14.52;;;7.60;99.90;;;;;;5075062;28;20474;-79
2022/11/07 06:09:53;;;;;;;21.50;12.15;;;7.50;99.90;;;;;;5076343;28;20517;-78
2022/11/07 06:12:19;;;;;;;25.15;13.98;;;7.60;99.90;;;;;;5075013;28;20386;-78
2022/11/07 06:14:44;;;;;;;22.95;11.85;;;7.60;99.90;;;;;;5074830;28;20040;-78
2022/11/07 06:17:10;;;;;;;26.85;13.50;;;7.60;99.90;;;;;;5076313;28;20059;-78
2022/11/07 06:19:35;;;;;;;22.40;12.27;;;7.60;99.90;;;;;;5076435;28;20054;-78
2022/11/07 06:22:01;;;;;;;23.02;12.77;;;7.60;99.90;;;;;;5073203;28;20020;-77
2022/11/07 06:24:27;;;;;;;100.55;48.45;;;7.60;99.90;;;;;;5080067;28;20033;-77
2022/11/07 06:26:52;;;;;;;35.78;18.60;;;7.60;99.90;;;;;;5079637;28;20017;-78
2022/11/07 06:29:18;;;;;;;30.95;15.05;;;7.60;99.90;;;;;;5092977;28;20507;-78
2022/11/07 06:31:44;;;;;;;28.83;14.43;;;7.60;99.90;;;;;;5079896;28;20021;-78
2022/11/07 06:34:09;;;;;;;24.63;14.65;;;7.50;99.90;;;;;;5092411;28;20127;-78
2022/11/07 06:36:35;;;;;;;26.65;14.35;;;7.60;99.90;;;;;;5090746;28;20469;-78
2022/11/07 06:39:00;;;;;;;28.23;14.80;;;7.60;99.90;;;;;;5102620;28;20033;-78
2022/11/07 06:41:26;;;;;;;25.77;14.43;;;7.60;99.90;;;;;;5093841;28;20055;-78
2022/11/07 06:43:52;;;;;;;29.35;15.10;;;7.60;99.90;;;;;;5089356;28;20025;-78
2022/11/07 06:46:22;;;;;;;29.08;15.27;;;7.70;99.90;;;;;;5075595;28;20021;-79
2022/11/07 06:48:48;;;;;;;26.92;15.18;;;7.70;99.90;;;;;;5075595;28;20031;-79
2022/11/07 06:51:14;;;;;;;28.38;13.77;;;7.60;99.90;;;;;;5074858;28;20052;-77
2022/11/07 06:53:39;;;;;;;31.20;16.25;;;7.70;99.90;;;;;;5074305;28;20476;-78
2022/11/07 06:56:07;;;;;;;33.63;16.73;;;7.60;99.90;;;;;;5073550;28;20029;-77
2022/11/07 06:58:33;;;;;;;35.00;18.25;;;7.70;99.90;;;;;;5075478;28;20145;-79
2022/11/07 07:01:01;;;;;;;32.67;16.67;;;7.70;99.90;;;;;;5073453;28;20024;-79
2022/11/07 07:03:26;;;;;;;36.92;18.05;;;7.70;99.90;;;;;;5065160;28;20016;-79
2022/11/07 07:05:52;;;;;;;32.13;17.08;;;7.70;99.90;;;;;;5074840;28;20028;-78
2022/11/07 07:08:18;;;;;;;29.98;16.30;;;7.80;99.90;;;;;;5073974;28;20056;-78
2022/11/07 07:10:44;;;;;;;33.45;18.38;;;7.90;99.90;;;;;;5075300;28;20382;-78
2022/11/07 07:13:12;;;;;;;31.05;17.70;;;7.80;99.90;;;;;;5073702;28;20077;-78
2022/11/07 07:15:38;;;;;;;36.47;18.02;;;7.90;99.90;;;;;;5075200;28;20402;-78
2022/11/07 07:18:04;;;;;;;32.75;17.83;;;8.00;99.90;;;;;;5074577;28;20027;-78
2022/11/07 07:20:30;;;;;;;35.85;18.73;;;8.00;99.90;;;;;;5073869;28;20429;-78
2022/11/07 07:22:56;;;;;;;37.40;18.55;;;8.10;99.90;;;;;;5078568;28;20061;-78
2022/11/07 07:25:22;;;;;;;37.13;19.40;;;8.10;99.90;;;;;;5093667;28;20028;-78
2022/11/07 07:27:47;;;;;;;37.35;19.02;;;8.20;99.90;;;;;;5094997;28;20027;-79
2022/11/07 07:30:13;;;;;;;37.22;19.55;;;8.20;99.90;;;;;;5110799;28;20027;-78
2022/11/07 07:32:39;;;;;;;33.63;19.52;;;8.20;99.90;;;;;;5094992;28;20469;-78
2022/11/07 07:35:05;;;;;;;32.08;17.20;;;8.20;99.90;;;;;;5110662;28;20043;-78
2022/11/07 07:37:31;;;;;;;31.70;17.90;;;8.20;99.90;;;;;;5092581;28;20089;-79
2022/11/07 07:39:57;;;;;;;35.65;18.02;;;8.30;99.90;;;;;;5073007;28;20419;-79
2022/11/07 07:42:22;;;;;;;29.80;16.73;;;8.30;99.90;;;;;;5072059;28;20041;-78
2022/11/07 07:44:48;;;;;;;34.65;19.15;;;8.30;99.90;;;;;;5073953;28;20040;-78
2022/11/07 07:47:14;;;;;;;33.35;18.52;;;8.30;99.90;;;;;;5072543;28;20025;-78
2022/11/07 07:49:39;;;;;;;38.60;19.05;;;8.30;99.90;;;;;;5072536;28;20029;-78
2022/11/07 07:52:05;;;;;;;37.50;19.15;;;8.40;99.90;;;;;;5073702;28;20104;-78
2022/11/07 07:54:31;;;;;;;42.47;20.10;;;8.50;99.90;;;;;;5073546;28;20498;-78
2022/11/07 07:56:56;;;;;;;41.80;21.10;;;8.60;99.90;;;;;;5073970;28;20039;-78
2022/11/07 07:59:22;;;;;;;38.60;20.05;;;8.70;99.90;;;;;;5074217;28;20023;-78
2022/11/07 08:01:48;;;;;;;39.33;21.00;;;8.80;99.90;;;;;;5073075;28;20488;-78
2022/11/07 08:04:13;;;;;;;41.38;22.52;;;8.80;99.90;;;;;;5072847;28;20177;-78
2022/11/07 08:06:39;;;;;;;38.63;21.35;;;8.90;99.90;;;;;;5074085;28;20028;-78
2022/11/07 08:09:05;;;;;;;44.38;22.25;;;8.90;99.90;;;;;;5072451;28;20033;-78
2022/11/07 08:11:31;;;;;;;42.33;22.38;;;8.80;99.90;;;;;;5072409;28;20106;-78
2022/11/07 08:13:56;;;;;;;38.15;20.73;;;8.90;99.90;;;;;;5073371;28;20040;-76
2022/11/07 08:16:22;;;;;;;36.80;20.48;;;8.90;99.90;;;;;;5074001;28;20064;-79
2022/11/07 08:18:47;;;;;;;35.15;18.98;;;8.90;99.90;;;;;;5073874;28;20021;-78
2022/11/07 08:21:13;;;;;;;38.58;18.95;;;9.00;99.90;;;;;;5072618;28;20031;-78
2022/11/07 08:23:38;;;;;;;31.55;17.83;;;9.00;99.90;;;;;;5085181;28;20024;-78
2022/11/07 08:26:05;;;;;;;33.92;17.25;;;9.10;99.90;;;;;;5092662;28;20534;-77
2022/11/07 08:28:32;;;;;;;29.70;16.83;;;9.10;99.90;;;;;;5093927;28;20099;-78
2022/11/07 08:31:10;;;;;;;34.53;16.73;;;9.10;99.90;;;;;;5109602;28;20020;-78
2022/11/07 08:33:36;;;;;;;30.38;14.18;;;9.20;99.90;;;;;;5084002;28;20071;-78
2022/11/07 08:36:04;;;;;;;28.73;15.38;;;9.30;99.90;;;;;;5072056;28;20031;-77
2022/11/07 08:38:31;;;;;;;25.00;13.65;;;9.40;99.90;;;;;;5073264;28;20494;-78
2022/11/07 08:40:58;;;;;;;21.98;14.10;;;9.40;99.90;;;;;;5071734;28;20072;-76
2022/11/07 08:43:24;;;;;;;28.45;14.02;;;9.50;99.90;;;;;;5072714;28;20459;-76
2022/11/07 08:45:51;;;;;;;22.80;12.30;;;9.50;99.90;;;;;;5063271;28;20020;-77
2022/11/07 08:48:16;;;;;;;22.75;12.10;;;9.50;99.90;;;;;;5071110;28;20024;-77
2022/11/07 08:50:42;;;;;;;21.30;12.15;;;9.50;99.90;;;;;;5072067;28;20081;-77
2022/11/07 08:53:08;;;;;;;23.10;12.30;;;9.50;99.90;;;;;;5066135;28;20036;-77
2022/11/07 08:55:34;;;;;;;24.95;13.80;;;9.50;99.90;;;;;;5073527;28;20016;-78
2022/11/07 08:58:02;;;;;;;17.75;11.07;;;9.50;99.90;;;;;;5071610;28;20398;-77
2022/11/07 09:00:28;;;;;;;18.52;10.98;;;9.60;99.90;;;;;;5070873;28;20020;-77
2022/11/07 09:02:53;;;;;;;20.70;9.93;;;9.60;99.90;;;;;;5071833;28;20054;-78
2022/11/07 09:05:19;;;;;;;16.63;10.13;;;9.60;99.90;;;;;;5073202;28;20393;-77
2022/11/07 09:07:45;;;;;;;18.45;9.15;;;9.60;99.90;;;;;;5073258;28;20028;-78
2022/11/07 09:10:10;;;;;;;14.20;8.25;;;9.70;99.90;;;;;;5073044;28;20103;-78
2022/11/07 09:12:43;;;;;;;12.95;8.73;;;9.70;99.90;;;;;;5073130;28;20025;-78
2022/11/07 09:15:09;;;;;;;12.52;8.15;;;9.70;99.90;;;;;;5073072;28;20115;-78
2022/11/07 09:17:35;;;;;;;17.40;9.57;;;9.80;99.90;;;;;;5073261;28;20107;-78
2022/11/07 09:20:00;;;;;;;14.23;10.38;;;9.80;99.90;;;;;;5071102;28;20025;-78
2022/11/07 09:22:27;;;;;;;12.60;8.27;;;9.90;99.90;;;;;;5071293;28;20048;-78
2022/11/07 09:24:52;;;;;;;16.95;9.05;;;9.90;99.90;;;;;;5091385;28;20073;-79
2022/11/07 09:27:18;;;;;;;13.43;7.95;;;9.90;99.90;;;;;;5090485;28;20024;-79
2022/11/07 09:29:43;;;;;;;13.88;7.55;;;10.00;99.90;;;;;;5091158;28;20020;-78
2022/11/07 09:32:09;;;;;;;15.43;8.25;;;9.90;99.90;;;;;;5091817;28;20028;-78
2022/11/07 09:34:35;;;;;;;8.90;6.22;;;9.90;99.90;;;;;;5071810;28;20406;-77
2022/11/07 09:37:01;;;;;;;11.77;6.82;;;9.90;99.90;;;;;;5073004;28;20402;-78
2022/11/07 09:39:27;;;;;;;12.80;6.07;;;9.90;99.90;;;;;;5072804;28;20052;-77
2022/11/07 09:42:17;;;;;;;10.05;6.43;;;9.90;99.90;;;;;;5071772;28;20517;-78
2022/11/07 09:44:55;;;;;;;12.00;6.45;;;9.90;99.90;;;;;;5072004;28;20028;-76
2022/11/07 09:47:26;;;;;;;11.60;6.40;;;9.90;99.90;;;;;;5071254;28;20063;-77
2022/11/07 09:49:57;;;;;;;10.50;6.68;;;10.00;99.90;;;;;;5070756;28;20048;-76
2022/11/07 09:52:42;;;;;;;10.60;6.07;;;10.00;99.90;;;;;;5072163;28;20120;-76
2022/11/07 09:55:19;;;;;;;8.45;5.65;;;10.00;99.90;;;;;;5071942;28;20036;-76
2022/11/07 09:57:47;;;;;;;10.05;5.93;;;10.00;99.90;;;;;;5072181;28;20029;-76
2022/11/07 10:00:18;;;;;;;11.25;5.38;;;9.90;99.90;;;;;;5070147;28;20112;-76
2022/11/07 10:02:55;;;;;;;10.75;6.13;;;9.80;99.90;;;;;;5070686;28;20056;-79
2022/11/07 10:05:36;;;;;;;9.43;6.00;;;9.80;99.90;;;;;;5069398;28;20024;-70
2022/11/07 10:08:26;;;;;;;8.98;6.05;;;9.70;99.90;;;;;;5071336;28;20063;-75
2022/11/07 10:10:59;;;;;;;11.30;6.32;;;9.70;99.90;;;;;;5071285;28;20415;-70
2022/11/07 10:13:25;;;;;;;15.57;6.05;;;9.70;99.90;;;;;;5073841;28;20044;-72
2022/11/07 10:16:03;;;;;;;15.60;7.75;;;9.70;99.90;;;;;;5074913;28;20028;-71
2022/11/07 10:18:36;;;;;;;11.95;6.90;;;9.70;99.90;;;;;;5074797;28;20547;-72
2022/11/07 10:21:05;;;;;;;11.88;6.28;;;9.70;99.90;;;;;;5076099;28;20535;-70
2022/11/07 10:24:03;;;;;;;12.15;6.75;;;9.60;99.90;;;;;;5075707;28;20515;-72
2022/11/07 10:26:30;;;;;;;13.63;6.53;;;9.60;99.90;;;;;;5076248;28;20021;-72
2022/11/07 10:29:01;;;;;;;13.85;6.82;;;9.60;99.90;;;;;;5075562;28;20028;-72
2022/11/07 10:31:34;;;;;;;13.10;7.45;;;9.60;99.90;;;;;;5076069;28;20038;-70
2022/11/07 10:34:32;;;;;;;9.75;6.10;;;9.70;99.90;;;;;;5075056;28;20468;-72
2022/11/07 10:36:57;;;;;;;8.95;6.25;;;9.70;99.90;;;;;;5063859;28;20489;-72
2022/11/07 10:39:23;;;;;;;11.10;6.95;;;9.80;99.90;;;;;;5075786;28;20029;-70
2022/11/07 10:42:04;;;;;;;10.55;6.85;;;9.90;99.90;;;;;;5075857;28;20438;-72
2022/11/07 10:44:30;;;;;;;11.82;7.78;;;10.00;99.90;;;;;;5075861;28;20075;-70
2022/11/07 10:46:56;;;;;;;13.15;8.13;;;10.10;99.90;;;;;;5073742;28;20031;-71
2022/11/07 10:49:23;;;;;;;11.68;6.72;;;10.20;99.90;;;;;;5073397;28;20111;-70
2022/11/07 10:51:49;;;;;;;12.88;7.20;;;10.20;99.90;;;;;;5073643;28;20071;-71
2022/11/07 10:54:29;;;;;;;11.50;7.70;;;10.40;99.90;;;;;;5071983;28;20132;-72
2022/11/07 10:57:15;;;;;;;16.55;8.57;;;10.30;99.90;;;;;;5072440;28;20398;-71
2022/11/07 10:59:54;;;;;;;14.80;8.63;;;10.50;99.90;;;;;;5072266;28;20533;-70
2022/11/07 11:02:23;;;;;;;19.73;10.18;;;10.50;96.40;;;;;;5075263;28;20062;-71
2022/11/07 11:05:01;;;;;;;14.65;10.00;;;10.50;94.50;;;;;;5075508;28;20104;-70
2022/11/07 11:07:38;;;;;;;16.20;10.18;;;10.60;94.10;;;;;;5075417;28;20046;-71
2022/11/07 11:10:27;;;;;;;18.77;10.23;;;10.60;94.10;;;;;;5075293;28;20017;-72
2022/11/07 11:12:53;;;;;;;21.60;10.68;;;10.60;94.10;;;;;;5074077;28;20028;-71
2022/11/07 11:15:25;;;;;;;22.45;12.52;;;10.60;91.60;;;;;;5075299;28;20024;-70
2022/11/07 11:18:05;;;;;;;27.05;15.23;;;10.60;92.90;;;;;;5075323;28;20027;-70
2022/11/07 11:20:45;;;;;;;29.33;17.40;;;10.60;92.70;;;;;;5075282;28;20040;-71
2022/11/07 11:23:30;;;;;;;23.73;12.82;;;10.60;91.00;;;;;;5083471;28;20028;-71
2022/11/07 11:26:04;;;;;;;23.75;14.25;;;10.40;90.30;;;;;;5095418;28;20016;-71
2022/11/07 11:28:38;;;;;;;23.70;13.27;;;10.40;91.40;;;;;;5095297;28;20024;-72
2022/11/07 11:31:14;;;;;;;20.70;12.73;;;10.40;93.20;;;;;;5095275;28;20019;-71
2022/11/07 11:33:52;;;;;;;18.75;11.38;;;10.50;94.30;;;;;;5082477;28;20520;-72
2022/11/07 11:36:23;;;;;;;21.83;11.82;;;10.50;93.00;;;;;;5080121;28;20496;-73
2022/11/07 11:38:54;;;;;;;13.35;8.85;;;10.60;93.70;;;;;;5091924;28;20040;-72
2022/11/07 11:41:43;;;;;;;18.58;11.02;;;10.60;93.30;;;;;;5082426;28;20050;-72
2022/11/07 11:44:29;;;;;;;17.70;9.52;;;10.70;93.60;;;;;;5089685;28;20028;-72
2022/11/07 11:47:24;;;;;;;15.43;8.15;;;10.80;94.60;;;;;;5093721;28;20153;-72
2022/11/07 11:50:02;;;;;;;12.55;7.82;;;10.80;92.20;;;;;;5088169;28;20059;-72
2022/11/07 11:52:30;;;;;;;14.90;8.23;;;10.90;91.10;;;;;;5090931;28;20016;-72
2022/11/07 11:54:57;;;;;;;11.00;7.63;;;10.80;88.30;;;;;;5085435;28;20128;-72
2022/11/07 11:57:31;;;;;;;14.30;8.60;;;10.90;89.70;;;;;;5090076;28;20501;-72
2022/11/07 12:00:00;;;;;;;13.15;8.07;;;10.90;89.70;;;;;;5093145;28;20061;-70
2022/11/07 12:02:59;;;;;;;21.45;11.57;;;11.00;89.50;;;;;;5090540;28;20081;-72
2022/11/07 12:05:34;;;;;;;16.02;10.15;;;11.00;89.50;;;;;;5089847;28;20161;-72
2022/11/07 12:08:18;;;;;;;17.33;10.85;;;11.10;88.90;;;;;;5083365;28;20108;-72
2022/11/07 12:11:03;;;;;;;17.00;11.27;;;11.10;86.30;;;;;;5082688;28;20048;-72
2022/11/07 12:13:43;;;;;;;17.05;9.45;;;11.00;85.50;;;;;;5086341;28;20081;-72
2022/11/07 12:16:15;;;;;;;15.23;10.10;;;10.90;84.60;;;;;;5087796;28;20095;-72
2022/11/07 12:18:57;;;;;;;12.25;9.63;;;10.90;86.40;;;;;;5087464;28;20034;-72
2022/11/07 12:21:34;;;;;;;14.57;10.43;;;10.90;86.30;;;;;;5087718;28;20028;-72
2022/11/07 12:24:18;;;;;;;12.93;9.23;;;10.90;86.70;;;;;;5087671;28;20036;-70
2022/11/07 12:26:53;;;;;;;13.20;8.10;;;10.80;86.10;;;;;;5090376;28;20035;-71
2022/11/07 12:29:28;;;;;;;14.85;9.85;;;10.90;88.30;;;;;;5072781;28;20371;-71
2022/11/07 12:32:30;;;;;;;12.18;8.32;;;11.00;89.30;;;;;;5079777;28;20036;-71
2022/11/07 12:35:21;;;;;;;18.17;10.27;;;11.00;86.00;;;;;;5063526;28;20055;-73
2022/11/07 12:38:05;;;;;;;17.90;11.57;;;11.10;87.10;;;;;;5087169;28;20028;-73
2022/11/07 12:41:08;;;;;;;53.65;24.38;;;11.10;87.30;;;;;;5081280;28;20053;-72
2022/11/07 12:43:42;;;;;;;18.13;11.25;;;11.20;87.90;;;;;;5071409;28;20024;-72
2022/11/07 12:46:24;;;;;;;18.70;13.50;;;11.10;84.80;;;;;;5092536;28;20088;-72
2022/11/07 12:49:27;;;;;;;52.88;21.27;;;11.20;84.60;;;;;;5092704;28;20020;-73
2022/11/07 12:52:18;;;;;;;35.10;16.90;;;11.10;83.90;;;;;;5080215;28;20043;-72
2022/11/07 12:54:57;;;;;;;18.55;11.60;;;11.10;84.10;;;;;;5074901;28;20115;-72
2022/11/07 12:57:30;;;;;;;51.70;22.35;;;11.10;83.00;;;;;;5088984;28;20024;-73
2022/11/07 13:00:19;;;;;;;38.40;16.98;;;11.10;84.30;;;;;;5085217;28;20036;-72
2022/11/07 13:03:32;;;;;;;79.30;48.13;;;11.20;86.20;;;;;;5064577;28;20099;-72